Retrouvez les resultats des épreuves Cycling Classics France

 
 
 
 
 
 
 
 
VEUILLEZ INDIQUER VOTRE NOM OU NUMéRO CYCLING CLASSICS FRANCE


2019 - Picarde Baie de Somme GranFondo - SCRATCH
RG.DOS.TEMPSCAT (RG.) POINTS
1 208MERCKX NIELS 04:35:23.59 M (18 - 29) (1) 300.00
2 12STAS BRECHT 04:35:23.77 M (18 - 29) (2) 299.00
3 117VANGHELUWE SEPPE 04:35:26.16 M (18 - 29) (3) 298.00
4 342VAN DER JEUGHT STIJN 04:35:42.82 M (30 - 39) (1) 300.00
5 339SPYSSCHAERT ANTHONY 04:36:12.13 M (30 - 39) (2) 299.00
6 294VANTON LANDER 04:36:18.53 M (30 - 39) (3) 298.00
7 277LAPIERE WARD 04:36:38.70 M (30 - 39) (4) 297.00
8 532BAEKELAND CEDRIC 04:36:43.61 M (18 - 29) (4) 297.00
9 816DEVROYE KIM 04:36:52.41 M (18 - 29) (5) 296.00
10 57DE WAELE FRANK 04:37:02.10 M (50 - 59) (1) 300.00
11 20ALLEMAN TIM 04:37:08.97 M (30 - 39) (5) 296.00
12 308VANTON JELLE 04:37:10.44 M (18 - 29) (6) 295.00
13 214HANSEEUW JELLE 04:37:12.07 M (30 - 39) (6) 295.00
14 176SCHUERMANS ROBIN 04:37:16.78 M (18 - 29) (7) 294.00
15 243WARNIER ANTOINE 04:37:23.34 M (18 - 29) (8) 293.00
16 327WILLEMS STEFAAN 04:37:25.33 M (30 - 39) (7) 294.00
17 59CHABERT HANS 04:37:26.54 M (40 - 49) (1) 300.00
18 954HOLVOET MATTIJS 04:37:30.00 M (30 - 39) (8) 293.00
19 953VAN WIJMELBEKE BEN 04:37:33.66 M (30 - 39) (9) 292.00
20 106VEYS MATHIAS 04:37:34.78 M (30 - 39) (10) 291.00
21 116LAMMENS KEVIN 04:37:36.50 M (30 - 39) (11) 290.00
22 820LORIOUX ALEXANDRE 04:37:38.04 M (30 - 39) (12) 289.00
23 78VAN LOON TOM 04:37:40.54 M (40 - 49) (2) 299.00
24 99DE VECCHI DAVID 04:37:41.93 M (40 - 49) (3) 298.00
25 780COCQUYT PATRICK 04:37:42.97 M (50 - 59) (2) 299.00
26 185CORNELIS NICO 04:37:43.00 M (30 - 39) (13) 288.00
27 206VANDAMME BENJAMIN 04:37:55.17 M (30 - 39) (14) 287.00
28 213CALLENAERE ALDO 04:37:56.87 M (30 - 39) (15) 286.00
29 38TRUBACZ LAURENT 04:38:02.06 M (40 - 49) (4) 297.00
30 810DEVOS ROMAIN 04:38:07.65 M (30 - 39) (16) 285.00
31 346BACHELET BENJAMIN 04:38:07.65 M (18 - 29) (9) 292.00
32 664DECAESTEKER FREDERIK 04:40:06.03 M (40 - 49) (5) 296.00
33 51GOURGUECHON BAPTISTE 04:40:29.10 M (18 - 29) (10) 291.00
34 845ROGIERS JORIS 04:41:10.11 M (40 - 49) (6) 295.00
35 1DEMARE ARNAUD 04:43:11.83 (1) 300.00
36 36DURAND THIBAULT 04:43:12.77 M (18 - 29) (11) 290.00
37 273VANHEE THIJS 04:51:24.14 M (30 - 39) (17) 284.00
38 502KNOCKAERT SAMMY 04:51:41.46 M (30 - 39) (18) 283.00
39 793DEVRIES JONAS 04:51:55.94 M (40 - 49) (7) 294.00
40 96VAN LAETHEM TOM 04:51:59.00 M (40 - 49) (8) 293.00
41 31BOSSERS MAARTEN 04:52:03.07 M (40 - 49) (9) 292.00
42 291PAYET WILLY 04:52:05.22 M (40 - 49) (10) 291.00
43 317HIMPE CEDRIC 04:52:31.02 M (18 - 29) (12) 289.00
44 341HOES STEF 04:53:35.07 M (30 - 39) (19) 282.00
45 818VAN VELTHOVEN MARK 04:54:46.42 M (18 - 29) (13) 288.00
46 592STROOBANT OLIVIER 04:54:52.29 M (40 - 49) (11) 290.00
47 908DEMANET THOMAS 04:54:55.74 M (18 - 29) (14) 287.00
48 821VAN DE PERRE LIEVEN 04:54:56.14 M (50 - 59) (3) 298.00
49 903LANDRY ROMUALD 04:55:00.55 M (40 - 49) (12) 289.00
50 896MARTINS VINCENT 04:55:02.36 M (30 - 39) (20) 281.00
51 340LE ROY ADRIEN 04:55:03.93 M (30 - 39) (21) 280.00
52 276WARGEE STEVEN 04:55:06.57 M (30 - 39) (22) 279.00
53 616VERDONCK SIMON 04:55:07.30 M (18 - 29) (15) 286.00
54 822D ANGELO BAPTISTE 04:55:22.45 M (18 - 29) (16) 285.00
55 687COLMAN JEROEN 04:55:26.61 M (18 - 29) (17) 284.00
56 904CHEVAL VALENTIN 04:55:27.55 M (18 - 29) (18) 283.00
57 412LEROY GUILLAUME 04:55:31.35 M (18 - 29) (19) 282.00
58 645SCHAAP ROBBERT 04:55:32.35 M (18 - 29) (20) 281.00
59 42BUCOVAZ ALAIN 04:55:34.66 M (50 - 59) (4) 297.00
60 919TAELMAN THIBAUT 04:55:36.24 M (18 - 29) (21) 280.00
61 434Van Hamme wim 04:55:37.52 M (40 - 49) (13) 288.00
62 647DE NIET ERIK 04:55:39.09 M (30 - 39) (23) 278.00
63 747DE WITTE MATHIAS 04:55:39.74 M (30 - 39) (24) 277.00
64 683LAPERRE CHRISTOPHE 04:55:40.78 M (30 - 39) (25) 276.00
65 422DEWAELE BART 04:55:41.28 M (40 - 49) (14) 287.00
66 748GOUSSEY MAARTEN 04:55:42.22 M (18 - 29) (22) 279.00
67 786GILLE THOMAS 04:55:44.65 M (40 - 49) (15) 286.00
68 897ANDRIEU THIERRY 04:55:44.83 M (50 - 59) (5) 296.00
69 951DECLEIR GIANNI 04:55:46.96 M (18 - 29) (23) 278.00
70 949KEYEUX NICOLAS 04:55:47.35 M (40 - 49) (16) 285.00
71 231GARENAUX CHRISTOPHE 04:55:47.43 M (50 - 59) (6) 295.00
72 926GILLIAERT JOHAN 04:55:47.79 M (40 - 49) (17) 284.00
73 852ROBBERECHTS IGNACE 04:55:48.96 M (30 - 39) (26) 275.00
74 259LEDOUX SASJA 04:55:49.71 M (40 - 49) (18) 283.00
75 537VERHELST KOEN 04:55:50.07 M (30 - 39) (27) 274.00
76 274DUBOS CEDRIC 04:55:50.27 M (40 - 49) (19) 282.00
77 272FOUDRAINE MARCEL 04:55:51.42 M (40 - 49) (20) 281.00
78 268VERVERKEN JOERI 04:55:51.47 M (30 - 39) (28) 273.00
79 742KIMPEN BERT 04:55:52.38 M (40 - 49) (21) 280.00
80 758FLIGNY ARNAUD 04:55:52.71 M (30 - 39) (29) 272.00
81 744DE KRAKER RINCO 04:55:53.95 M (30 - 39) (30) 271.00
82 445PRIGENT JULIEN 04:55:57.44 M (30 - 39) (31) 270.00
83 236VAN ELP KLARENZO 04:56:01.30 M (18 - 29) (24) 277.00
84 19TROUVE KRISTOF 04:56:01.74 M (40 - 49) (22) 279.00
85 18CNUDDE YVES 04:56:02.06 M (40 - 49) (23) 278.00
86 207WARSON LAURENS 04:56:02.32 M (30 - 39) (32) 269.00
87 56DE WAELE GUY 04:56:04.91 M (50 - 59) (7) 294.00
88 716MALESYS VINCENT 04:56:05.13 M (18 - 29) (25) 276.00
89 144SPITAELS DIMITRY 04:56:05.44 M (18 - 29) (26) 275.00
90 238VAN DE MOORTELE SVEN 04:56:06.09 M (40 - 49) (24) 277.00
91 298DE RIDDER RICHARD 04:56:06.69 M (50 - 59) (8) 293.00
92 289DESMET PASCAL 04:56:06.94 M (40 - 49) (25) 276.00
93 336DELBOULLE NICOLAS 04:56:07.04 M (40 - 49) (26) 275.00
94 279VANDERROST FREDERIK 04:56:07.67 M (30 - 39) (33) 268.00
95 300ROMEYNS KOEN 04:56:08.73 M (30 - 39) (34) 267.00
96 115VERMOENS PHILIP 04:56:10.96 M (40 - 49) (27) 274.00
97 935GROSSI REMY 04:56:11.28 M (18 - 29) (27) 274.00
98 267ALDERMAN JOHN 04:56:12.83 M (50 - 59) (9) 292.00
99 26VAN GILS KOEN 04:56:13.05 M (30 - 39) (35) 266.00
100 329CORDYN SAM 04:56:14.50 M (30 - 39) (36) 265.00
101 171WAEYAERT GREGORY 04:56:14.82 M (18 - 29) (28) 273.00
102 135DELOOF JEAN PIERRE 04:56:14.90 M (50 - 59) (10) 291.00
103 269VERHAEGHE STEFAN 04:56:15.10 M (50 - 59) (11) 290.00
104 95SMEETS PETER 04:56:19.34 M (30 - 39) (37) 264.00
105 240SOETAERT DION 04:56:20.18 M (50 - 59) (12) 289.00
106 281DE WINNE DAVY 04:56:23.53 M (30 - 39) (38) 263.00
107 612LEFEBVRE LENNARD 04:56:23.60 M (18 - 29) (29) 272.00
108 326VANDERSCHUEREN STEVEN 04:56:24.48 M (40 - 49) (28) 273.00
109 233DIRHEIMER MICKAEL 04:56:26.04 M (30 - 39) (39) 262.00
110 142KLIS DIDIER 04:56:27.24 M (50 - 59) (13) 288.00
111 322VAN DER STOCK PETER 04:56:27.85 M (40 - 49) (29) 272.00
112 101DE COSTER GUY 04:56:28.66 M (50 - 59) (14) 287.00
113 112VAN NIEUWENHOVE FREE 04:56:29.69 M (30 - 39) (40) 261.00
114 303KEERSMAEKERS MICHAEL 04:56:30.13 M (30 - 39) (41) 260.00
115 188VAN HOLSBEECK ANDY 04:56:30.90 M (40 - 49) (30) 271.00
116 316MERTENS ERWIN 04:56:33.31 M (50 - 59) (15) 286.00
117 81VAN LANDEGHEM HEDWIG 04:56:33.83 M (50 - 59) (16) 285.00
118 221WARNIER LUC 04:56:34.72 M (50 - 59) (17) 284.00
119 334VANHAESEBROECK HANS 04:56:35.11 M (40 - 49) (31) 270.00
120 299HERREMAN PIET 04:56:35.48 M (50 - 59) (18) 283.00
121 125VANDENDRIESSCHE ERIC 04:56:37.25 M (67 & +) (1) 300.00
122 169DE LAENDER STEVEN 04:56:38.02 M (40 - 49) (32) 269.00
123 854LOWAGIE KEVIN 04:56:42.98 M (30 - 39) (42) 259.00
124 104SCAPICCHIO JOERI 04:56:44.06 M (30 - 39) (43) 258.00
125 349SCHNEIDER GREGORY 04:56:46.72 M (40 - 49) (33) 268.00
126 80LALOUETTE SEBASTIEN 04:56:53.40 M (40 - 49) (34) 267.00
127 338MERCIRIS FABIEN 04:56:56.30 M (40 - 49) (35) 266.00
128 37FARCY EMMANUELLE 04:56:56.89 F (35 - 49) (1) 300.00
129 783MIEZE SEBASTIEN 04:56:58.41 M (30 - 39) (44) 257.00
130 163VANFLETEREN CHRISTOPHE 04:57:02.80 M (30 - 39) (45) 256.00
131 58VAN DEN BOSSCHE BEN 04:57:13.28 M (40 - 49) (36) 265.00
132 177VAN KEIRSBILCK ERIC 04:57:20.73 M (50 - 59) (19) 282.00
133 184DIERICK BART 04:57:29.89 M (18 - 29) (30) 271.00
134 33BYTEBIER BAPTISTE 04:57:30.37 M (18 - 29) (31) 270.00
135 8MISMAQUE JACQUES 04:57:32.40 M (50 - 59) (20) 281.00
136 301VERZEELE BRECHT 04:57:35.14 M (30 - 39) (46) 255.00
137 335HAERYNCK DAVID 04:57:54.32 M (30 - 39) (47) 254.00
138 28VERTRIEST BERT 04:58:47.04 M (40 - 49) (37) 264.00
139 191MEISTER LAURENT 04:59:04.73 M (40 - 49) (38) 263.00
140 66FAES FABIO 05:00:04.82 M (30 - 39) (48) 253.00
141 82GEEROMS STIJN 05:00:07.51 M (40 - 49) (39) 262.00
142 227NAESSENS ROBBIE 05:00:13.83 M (40 - 49) (40) 261.00
143 451Timmermans Patrice 05:00:14.68 M (18 - 29) (32) 269.00
144 24LIPPI THIERRY 05:00:21.13 M (50 - 59) (21) 280.00
145 479BOARDMAN JEREMY 05:00:32.39 M (50 - 59) (22) 279.00
146 242GORIS GEERT 05:00:36.89 M (50 - 59) (23) 278.00
147 168FAGART BERTRAND 05:00:40.01 M (40 - 49) (41) 260.00
148 27VANTHILLO HIDDE 05:00:50.93 M (30 - 39) (49) 252.00
149 152ARNOE TOM 05:01:04.59 M (18 - 29) (33) 268.00
150 53DHONDT PETER 05:01:09.39 M (40 - 49) (42) 259.00
151 293HEUNET OLIVIER 05:01:11.20 M (50 - 59) (24) 277.00
152 211PRUIMBOOM GUIDO 05:01:23.61 M (40 - 49) (43) 258.00
153 40DESMET RUBEN 05:02:21.91 M (30 - 39) (50) 251.00
154 73VAES NIELS 05:03:34.33 M (30 - 39) (51) 250.00
155 159EULAERTS PATRICK 05:04:35.48 M (40 - 49) (44) 257.00
156 4538UNAL BANU 05:05:35.28 F (18 - 34) (1) 300.00
157 540PAUWELS KURT 05:06:23.30 M (50 - 59) (25) 276.00
158 122MAERTENS JURGEN 05:06:24.36 M (40 - 49) (45) 256.00
159 306VLOEMANS STEF 05:06:36.68 M (18 - 29) (34) 267.00
160 205DEBUISSON JULIAN 05:07:05.14 M (30 - 39) (52) 249.00
161 278DOBBENIE JAN 05:07:42.88 M (40 - 49) (46) 255.00
162 721VAN DER CRUYS JAN 05:08:08.01 M (40 - 49) (47) 254.00
163 847GILLON GUILLAUME 05:08:08.08 M (30 - 39) (53) 248.00
164 719VANOVERBEKE JOOST 05:08:15.66 M (40 - 49) (48) 253.00
165 868TILLIER RICHARD 05:08:36.40 M (40 - 49) (49) 252.00
166 694EECKHOUT KEVIN 05:08:36.97 M (30 - 39) (54) 247.00
167 328IMOLEON XAVIER 05:08:43.98 M (40 - 49) (50) 251.00
168 234VANEECKHOUT LOWIE 05:08:44.85 M (18 - 29) (35) 266.00
169 950BEKAERT JULIEN 05:08:45.52 M (18 - 29) (36) 265.00
170 315SANCHEZ JEAN MICHEL 05:08:47.13 M (50 - 59) (26) 275.00
171 319DUPREZ GUILLAUME 05:08:48.49 M (18 - 29) (37) 264.00
172 567STOFFERIS RIENO 05:08:56.98 M (40 - 49) (51) 250.00
173 773MORTIER KJELL 05:09:00.87 M (40 - 49) (52) 249.00
174 760BLOT MAXIME 05:09:02.41 M (18 - 29) (38) 263.00
175 772MORTIER JENS 05:09:05.93 M (40 - 49) (53) 248.00
176 739DE RIDDER MARIO 05:09:06.69 M (40 - 49) (54) 247.00
177 846MAHIEU JONAS 05:09:18.09 M (18 - 29) (39) 262.00
178 404HINSINGER LIONEL 05:09:19.64 M (50 - 59) (27) 274.00
179 708WATZEELS NICK 05:09:21.59 M (30 - 39) (55) 246.00
180 469BRINGMANS GUY 05:09:24.07 M (30 - 39) (56) 245.00
181 863HENDRICKX BART 05:09:24.12 M (30 - 39) (57) 244.00
182 802VAN LYSEBETH MATHIAS 05:09:25.93 M (18 - 29) (40) 261.00
183 803GOOSSENS ARNO 05:09:27.28 M (18 - 29) (41) 260.00
184 632VAN MEGEN ROBBERT 05:09:27.94 M (50 - 59) (28) 273.00
185 495HUBERT CHARLES 05:09:29.37 M (30 - 39) (58) 243.00
186 484VAN GRIEKEN RAPHAEL 05:09:29.53 M (67 & +) (2) 299.00
187 790KERKHOF ALWIN 05:09:29.64 M (40 - 49) (55) 246.00
188 190WEEMAELS STEVEN 05:09:29.70 M (40 - 49) (56) 245.00
189 111DECOTTIGNIES ROBIN 05:09:31.70 M (30 - 39) (59) 242.00
190 161FLEURENCE DANIEL 05:09:32.56 M (50 - 59) (29) 272.00
191 921OVERMEIRE RUDI 05:09:33.73 M (50 - 59) (30) 271.00
192 3NEDERLOF EDWIN 05:09:34.42 M (40 - 49) (57) 244.00
193 124CASIER DIETER 05:09:34.79 M (30 - 39) (60) 241.00
194 174KERCKHAERT WIM 05:09:36.34 M (40 - 49) (58) 243.00
195 47HANSSENS CHRISTOPHE 05:09:36.73 M (50 - 59) (31) 270.00
196 123ROSEZ DIEDERIK 05:09:39.11 M (30 - 39) (61) 240.00
197 662SLAGBOOM THIJS 05:09:40.44 M (30 - 39) (62) 239.00
198 309GERMONPREZ DAVID 05:09:40.76 M (40 - 49) (59) 242.00
199 952LATINE KEN 05:09:42.28 M (30 - 39) (63) 238.00
200 286DE SCHRYVER SVEN 05:09:42.58 M (40 - 49) (60) 241.00
201 193ANDERSON PETER 05:09:48.49 M (50 - 59) (32) 269.00
202 253SCHIETECATTE STEVEN 05:09:48.79 M (40 - 49) (61) 240.00
203 126DE VRIENDT GEERT 05:09:50.36 M (60 - 66) (1) 300.00
204 241DUBOIS GIL 05:09:51.13 M (40 - 49) (62) 239.00
205 282DESTATSBADER CHRIST 05:09:51.33 M (50 - 59) (33) 268.00
206 237WALRAVENS TOM 05:09:53.01 M (30 - 39) (64) 237.00
207 204RYCKBOSCH JAN 05:09:54.25 M (50 - 59) (34) 267.00
208 895DE WEIRDT KURT 05:09:56.26 M (40 - 49) (63) 238.00
209 879VANCOMPERNOLLE MATHIJS 05:09:56.81 M (30 - 39) (65) 236.00
210 127COOL CARL 05:09:57.20 M (40 - 49) (64) 237.00
211 181LEFEBURE BARRY 05:09:58.34 M (50 - 59) (35) 266.00
212 229LEQUIEN STEPHANE 05:09:58.56 M (40 - 49) (65) 236.00
213 244DE WEIRDT CHRISTOPHE 05:09:59.51 M (40 - 49) (66) 235.00
214 167DE WITTE MATTHIAS 05:10:00.21 M (18 - 29) (42) 259.00
215 76GILIS RUDI 05:10:01.82 M (50 - 59) (36) 265.00
216 154CARNOL IVAN 05:10:03.69 M (60 - 66) (2) 299.00
217 215MALHERBE JEAN LUC 05:10:03.75 M (40 - 49) (67) 234.00
218 246BAECK PHILIPPE 05:10:04.59 M (40 - 49) (68) 233.00
219 92VAN CAUWENBERG KRISTOF 05:10:04.99 M (30 - 39) (66) 235.00
220 75SPAPEN DAVE 05:10:06.29 M (40 - 49) (69) 232.00
221 794DELARACE PHILIPPE 05:10:09.80 M (50 - 59) (37) 264.00
222 140VANSCHOONBEEK GUIDO 05:10:14.93 M (60 - 66) (3) 298.00
223 350SCHNEIDER MAXIME 05:10:30.29 M (18 - 29) (43) 258.00
224 789LE FRENE GREGORY 05:10:53.60 M (40 - 49) (70) 231.00
225 704VAN ACKER BRUNO 05:10:53.75 M (30 - 39) (67) 234.00
226 877VEIRMAN PETER 05:10:58.67 M (50 - 59) (38) 263.00
227 141NECKEBROECK PETER 05:11:08.35 M (50 - 59) (39) 262.00
228 409ROUSSEAU CéDRIC 05:11:10.17 M (30 - 39) (68) 233.00
229 470KAWA MARIAN 05:11:12.59 M (60 - 66) (4) 297.00
230 251LAJOIE LAURENT 05:11:21.94 M (50 - 59) (40) 261.00
231 187CALLEEUW JOHAN 05:11:34.53 M (50 - 59) (41) 260.00
232 310CHANDELIER ARNAUD 05:11:34.85 M (40 - 49) (71) 230.00
233 468OSTYN STEVEN 05:11:35.40 M (40 - 49) (72) 229.00
234 86VAN EYNDE STEFAN 05:11:37.75 M (40 - 49) (73) 228.00
235 283DAVY GEERINCK 05:11:46.78 M (30 - 39) (69) 232.00
236 132DE BROUWER ROB 05:11:47.68 M (50 - 59) (42) 259.00
237 15VANSPRINGEL JOSEPH 05:11:53.90 M (60 - 66) (5) 296.00
238 114POLLENTIER BENNY 05:12:31.92 M (50 - 59) (43) 258.00
239 249JOSSE BENOIT 05:12:33.88 M (30 - 39) (70) 231.00
240 450TIMMERMANS FABIAN 05:13:14.72 M (18 - 29) (44) 257.00
241 35COLLEN CEDRIC 05:13:43.95 M (40 - 49) (74) 227.00
242 486VAN DEN BERGHE DOMINIQUE 05:13:53.82 M (40 - 49) (75) 226.00
243 245DEMYTTENAERE FREDERIC 05:14:06.70 M (30 - 39) (71) 230.00
244 575BARRANTES ANDRES 05:16:09.18 M (30 - 39) (72) 229.00
245 105VAN DYCK KEVIN 05:16:52.29 M (18 - 29) (45) 256.00
246 128HOLVOET VINCENT 05:17:34.86 M (30 - 39) (73) 228.00
247 63LABAERE KENNETH 05:17:36.91 M (18 - 29) (46) 255.00
248 861LISSENS PETER 05:17:37.35 M (50 - 59) (44) 257.00
249 257LAMBERT BRAM 05:17:42.63 M (40 - 49) (76) 225.00
250 850VASSEUR BRUNO 05:17:43.81 M (60 - 66) (6) 295.00
251 200DAENEN HARRY 05:17:47.83 M (40 - 49) (77) 224.00
252 330ROY JEAN PHILIPPE 05:17:49.64 M (50 - 59) (45) 256.00
253 55D HOLLANDER JERRY 05:17:50.29 M (50 - 59) (46) 255.00
254 121MORTIER LUC 05:17:58.12 M (50 - 59) (47) 254.00
255 198PENNEQUIN LAURENT 05:17:59.79 M (40 - 49) (78) 223.00
256 966VAN REETH RONALD 05:18:01.58 M (50 - 59) (48) 253.00
257 305WIDART DOMINIQUE 05:18:04.04 M (60 - 66) (7) 294.00
258 46VAN BELLE KOEN 05:18:11.12 M (30 - 39) (74) 227.00
259 693EECKHOUT STEVEN 05:18:18.41 M (30 - 39) (75) 226.00
260 736CHEVALIER THIERRY 05:18:24.57 M (40 - 49) (79) 222.00
261 858MOREAUX MAXIME 05:18:26.37 M (18 - 29) (47) 254.00
262 456DE BLANC WIM 05:18:33.94 M (40 - 49) (80) 221.00
263 681SHEHADEH JAMIL 05:18:34.46 M (40 - 49) (81) 220.00
264 172BOGAERT TYBO 05:18:36.83 M (18 - 29) (48) 253.00
265 137VERVAEKE DIETER 05:18:42.92 M (30 - 39) (76) 225.00
266 157BASKERVILLE JAMIE 05:18:45.44 M (50 - 59) (49) 252.00
267 887GARCIA DA SILVA FERNANDO 05:18:47.61 M (40 - 49) (82) 219.00
268 325VANDENBOSSCHE JOCHEN 05:18:50.50 M (30 - 39) (77) 224.00
269 265VAN DAELE YVE 05:18:52.18 M (50 - 59) (50) 251.00
270 158STAELENS KEVIN 05:18:54.43 M (18 - 29) (49) 252.00
271 910LASSUY KURT 05:19:03.89 M (50 - 59) (51) 250.00
272 943VARDAL HUSEYIN 05:19:24.27 M (40 - 49) (83) 218.00
273 657VANTUYCKOM NICOLAS 05:19:24.50 M (30 - 39) (78) 223.00
274 287PIRES PASCAL 05:19:25.98 M (50 - 59) (52) 249.00
275 775GOSSELIN GUILLAUME 05:19:29.11 M (18 - 29) (50) 251.00
276 472VENDE FRANCK 05:19:31.77 M (40 - 49) (84) 217.00
277 725BELLON KEN 05:19:32.50 M (30 - 39) (79) 222.00
278 711VAN DE VREKEN HANNES 05:19:33.49 M (30 - 39) (80) 221.00
279 623CHAIDRON AMAURY 05:19:37.40 M (30 - 39) (81) 220.00
280 830VAN ROOY NIELS 05:19:41.46 M (18 - 29) (51) 250.00
281 421RAINERI PASCAL 05:19:45.49 M (50 - 59) (53) 248.00
282 471DE LEEUW TONY 05:19:51.39 M (50 - 59) (54) 247.00
283 905ALLEMAN JUAN 05:19:52.64 M (30 - 39) (82) 219.00
284 260DEPOORTER JURGEN 05:19:54.59 M (40 - 49) (85) 216.00
285 313SCHROEDER ULRICH 05:19:55.84 M (67 & +) (3) 298.00
286 480PETER BEETS 05:19:56.76 M (40 - 49) (86) 215.00
287 743VAN ENDE GITTE 05:19:59.15 F (35 - 49) (2) 299.00
288 203DE NAUW SIGFRIED 05:20:04.69 M (30 - 39) (83) 218.00
289 100VANDEGHINSTE MARC 05:20:06.88 M (40 - 49) (87) 214.00
290 44BUYCK JASPER 05:20:07.94 M (18 - 29) (52) 249.00
291 156TURNER DEAN 05:20:19.77 M (40 - 49) (88) 213.00
292 750VERBEKE JONAS 05:20:21.38 M (30 - 39) (84) 217.00
293 25SEGALA FAUSTO 05:20:27.82 M (60 - 66) (8) 293.00
294 318TRAULET LAURENT 05:20:29.79 M (50 - 59) (55) 246.00
295 134CALLENS LUC 05:20:34.10 M (50 - 59) (56) 245.00
296 324DE LAGREVOL REMI 05:20:35.69 M (40 - 49) (89) 212.00
297 199DERYCKE HANS 05:20:39.66 M (50 - 59) (57) 244.00
298 559BROUTIN MAXIME 05:20:43.89 M (30 - 39) (85) 216.00
299 88MYNSBERGHE EDDY 05:20:53.56 M (50 - 59) (58) 243.00
300 671VAN DE LOOCK MATTHIAS 05:20:55.56 M (18 - 29) (53) 248.00
301 89DELARUELLE BART 05:20:55.86 M (50 - 59) (59) 242.00
302 9HAAST INGRID 05:21:06.36 F (35 - 49) (3) 298.00
303 862DRUANT BENOIT 05:21:06.41 M (30 - 39) (86) 215.00
304 815NOPPE BJORN 05:21:10.65 M (30 - 39) (87) 214.00
305 143FORIER PETER 05:21:12.99 M (40 - 49) (90) 211.00
306 138SCHARLAEKEN DOMINIQUE 05:21:33.80 M (40 - 49) (91) 210.00
307 130FEYS YVES 05:21:34.73 M (50 - 59) (60) 241.00
308 145NAERT MARIJN 05:21:37.93 M (30 - 39) (88) 213.00
309 16ROOSE YANNIK 05:22:10.92 M (50 - 59) (61) 240.00
310 284BOUDEHEN PHILIPPE 05:22:19.19 M (50 - 59) (62) 239.00
311 685LAPAUW LEANDER 05:22:55.52 M (30 - 39) (89) 212.00
312 461ALLEN JAIE 05:23:24.54 M (30 - 39) (90) 211.00
313 345GATTI FRANCK 05:23:31.28 M (50 - 59) (63) 238.00
314 604DARTHET PAUL 05:23:45.14 M (60 - 66) (9) 292.00
315 729DEPEYPER TOON 05:24:02.18 M (40 - 49) (92) 209.00
316 936DELANOYE MATTHIEU 05:24:44.87 M (30 - 39) (91) 210.00
317 414BOELS KRISTOF 05:25:17.23 M (30 - 39) (92) 209.00
318 343DELARACE XAVIER 05:25:34.00 M (30 - 39) (93) 208.00
319 189GROVES ALAN 05:25:57.56 M (50 - 59) (64) 237.00
320 720VERHEYE JEROEN 05:26:32.92 M (40 - 49) (93) 208.00
321 714MAES JEAN-PAUL 05:26:52.94 M (50 - 59) (65) 236.00
322 765MESTDAGH JAN 05:26:55.95 M (40 - 49) (94) 207.00
323 219SHAW PETER 05:27:25.45 M (30 - 39) (94) 207.00
324 666BEKAERT LAURENS 05:27:40.42 M (30 - 39) (95) 206.00
325 531DE ZUTTER SONNY 05:27:42.98 M (30 - 39) (96) 205.00
326 826VAN DEN BOSSCHE CEDRIC 05:27:48.50 M (30 - 39) (97) 204.00
327 17BAKER PETER 05:27:55.53 M (60 - 66) (10) 291.00
328 186FICKERS CLAUDE 05:27:56.23 M (50 - 59) (66) 235.00
329 129WINNE JOS 05:28:00.57 M (40 - 49) (95) 206.00
330 332POSTHOUWER DIRK 05:28:11.46 M (40 - 49) (96) 205.00
331 946LAHEURTE AVRIL 05:28:27.77 F (18 - 34) (2) 299.00
332 550BORTIER JURGEN 05:29:04.70 M (40 - 49) (97) 204.00
333 533DEWAELE LOIS 05:29:11.80 M (18 - 29) (54) 247.00
334 717DE SCHEPPER JOHN PAUL 05:29:17.38 M (40 - 49) (98) 203.00
335 667DEPRAETERE ROEL 05:29:19.30 M (30 - 39) (98) 203.00
336 860EVERAERT FILIP 05:29:30.18 M (30 - 39) (99) 202.00
337 785PAGNON LIONEL 05:29:31.12 M (50 - 59) (67) 234.00
338 498DESSEYN FILIP 05:29:34.80 M (30 - 39) (100) 201.00
339 570TACK MICHIEL 05:29:35.16 M (18 - 29) (55) 246.00
340 528STEENACKERS GUNTHER 05:29:39.96 M (40 - 49) (99) 202.00
341 165EGELS JOHAN 05:29:39.98 M (40 - 49) (100) 201.00
342 675DEVRIESE FRANK 05:29:42.60 M (50 - 59) (68) 233.00
343 262JACOBS NATHAN 05:29:45.80 M (18 - 29) (56) 245.00
344 610MICHIELSEN STIJN 05:29:46.01 M (30 - 39) (101) 200.00
345 494PEETERS TIM 05:29:52.33 M (40 - 49) (101) 200.00
346 418BLOMME MARIEKE 05:29:53.02 F (35 - 49) (4) 297.00
347 516VERVAEKE TIMOTHY 05:29:54.77 M (30 - 39) (102) 199.00
348 707GODET STEPHANE 05:29:57.96 M (30 - 39) (103) 198.00
349 841LEFEBVRE ALEXANDRE 05:30:00.15 M (30 - 39) (104) 197.00
350 684TIMPERMAN ELKE 05:30:05.82 F (18 - 34) (3) 298.00
351 307DE MULDER KENNY 05:30:10.57 M (30 - 39) (105) 196.00
352 549MALTEZ SERGIO 05:30:10.78 M (40 - 49) (102) 199.00
353 673DOMINIQUE LEBLANC 05:30:18.36 M (50 - 59) (69) 232.00
354 948VERHENNE TIM 05:30:26.58 M (18 - 29) (57) 244.00
355 321MALLET CYRIL 05:30:27.16 M (40 - 49) (103) 198.00
356 136VANDENBERGHE RUDY 05:30:27.73 M (60 - 66) (11) 290.00
357 252HAELTERMAN JOHAN 05:30:33.19 M (40 - 49) (104) 197.00
358 4DEWINTER MICHEL 05:30:34.51 M (60 - 66) (12) 289.00
359 254HEYMANS TIM 05:30:35.24 M (30 - 39) (106) 195.00
360 32VILLANCE JULIEN 05:30:41.03 M (67 & +) (4) 297.00
361 314VAN NIEUWENBORGH HERMAN 05:30:47.16 M (60 - 66) (13) 288.00
362 292CHOQUET DAVID 05:30:55.03 M (40 - 49) (105) 196.00
363 271DANGLETERRE CYRIL 05:30:56.78 M (40 - 49) (106) 195.00
364 7VILLANCE JOSEPH 05:30:58.45 M (60 - 66) (14) 287.00
365 855MOREAUX MICHAEL 05:30:59.97 M (40 - 49) (107) 194.00
366 518VAN SEETERS RAY 05:31:06.51 M (60 - 66) (15) 286.00
367 416NUTTIN THIJS 05:31:13.26 M (18 - 29) (58) 243.00
368 415OPSOMER THIBEAU 05:31:50.85 M (18 - 29) (59) 242.00
369 837ROUXEL STEPHANE 05:31:57.16 M (50 - 59) (70) 231.00
370 838FOIREST MICKAEL 05:32:10.66 M (40 - 49) (108) 193.00
371 886GELPI MICHAEL 05:32:26.52 M (40 - 49) (109) 192.00
372 255LE SCIELLOUR PHILIPPE 05:32:50.68 M (50 - 59) (71) 230.00
373 732ZOCCHETTO FIRMIN 05:33:09.48 M (18 - 29) (60) 241.00
374 656POMBOURCQ ROMUALD 05:33:43.77 M (40 - 49) (110) 191.00
375 304HOLLEVOET ANTON 05:33:51.06 M (18 - 29) (61) 240.00
376 577ROSSEEL CEDRIC 05:34:07.01 M (18 - 29) (62) 239.00
377 162DISCHLOVOI OLIVIER 05:34:17.11 M (18 - 29) (63) 238.00
378 733BLOCKELET MATHIAS 05:34:39.52 M (18 - 29) (64) 237.00
379 734GIEL ALEXANDRE 05:34:41.46 M (18 - 29) (65) 236.00
380 164DE SCHEPPER TOM 05:34:55.18 M (40 - 49) (111) 190.00
381 527DE DAUW BENNY 05:34:56.12 M (40 - 49) (112) 189.00
382 526NIJS JOHAN 05:34:56.48 M (50 - 59) (72) 229.00
383 706DE RIDDER KAREL 05:34:56.76 M (30 - 39) (107) 194.00
384 348SALLEM CLEMENT 05:35:17.54 M (18 - 29) (66) 235.00
385 120FOSSAERT DIETER 05:37:04.96 M (30 - 39) (108) 193.00
386 730HENRY ALBAN 05:37:10.76 M (30 - 39) (109) 192.00
387 458ROELANDT BART 05:37:12.10 M (30 - 39) (110) 191.00
388 876DRESER MANUEL 05:37:14.84 M (40 - 49) (113) 188.00
389 864GUILLIER ROMAIN 05:37:16.64 M (30 - 39) (111) 190.00
390 210GELUK YVA 05:37:27.49 F (18 - 34) (4) 297.00
391 867DE VOS CHRISTOPHE 05:37:27.63 M (40 - 49) (114) 187.00
392 403VAN NUFFEL GUY 05:37:29.37 M (50 - 59) (73) 228.00
393 401VAN DEN ABBEELE PASCAL 05:37:31.94 M (40 - 49) (115) 186.00
394 944LENOIR LOIC 05:37:36.75 M (30 - 39) (112) 189.00
395 843BOMBAERT SABINE 05:37:42.04 F (35 - 49) (5) 296.00
396 799DEDOBBELEER SVEN 05:37:42.18 M (40 - 49) (116) 185.00
397 557PETIT ALAIN 05:37:43.15 M (50 - 59) (74) 227.00
398 749DETRAZ NICOLAS 05:37:49.58 M (30 - 39) (113) 188.00
399 918VERBEKE ARTHUR 05:37:58.33 M (18 - 29) (67) 234.00
400 466DEGRAVE BERT 05:37:58.45 M (40 - 49) (117) 184.00
401 888CLAES BRECHT 05:38:03.80 M (30 - 39) (114) 187.00
402 256HARDY GERD 05:38:04.11 M (50 - 59) (75) 226.00
403 756COUPET-SARRAILH VINCENT 05:38:07.73 M (18 - 29) (68) 233.00
404 696VAN DE VOORT LOES 05:38:09.13 F (35 - 49) (6) 295.00
405 131BAERT ANTOON 05:38:24.16 M (67 & +) (5) 296.00
406 103LEQUEUE SANDY 05:38:28.77 M (40 - 49) (118) 183.00
407 160DEWAELE PHILIPPE 05:38:29.24 M (40 - 49) (119) 182.00
408 93DE BRUYNE DIRK 05:38:45.63 M (40 - 49) (120) 181.00
409 85BOSMAN TOM 05:38:46.12 M (40 - 49) (121) 180.00
410 285LEMAIRE LUC 05:39:07.49 M (50 - 59) (76) 225.00
411 869ROUSSEL JEAN PHILIPPE 05:39:15.05 M (50 - 59) (77) 224.00
412 290PHILIPPE JEAN YVES 05:39:32.60 M (30 - 39) (115) 186.00
413 579ANSSENS JO 05:39:35.02 M (30 - 39) (116) 185.00
414 640AERTS GEERT 05:39:35.28 M (40 - 49) (122) 179.00
415 585VERMEIRE FREDDY 05:39:36.19 M (50 - 59) (78) 223.00
416 591KEMPF PHILIPP 05:39:36.43 M (30 - 39) (117) 184.00
417 909GRILLOT FREDERIC 05:39:48.71 M (40 - 49) (123) 178.00
418 697HOLLEVOET JEAN PIERRE 05:40:09.73 M (50 - 59) (79) 222.00
419 831MATON VINCENT 05:40:17.19 M (40 - 49) (124) 177.00
420 147ALLIET PETER 05:40:20.77 M (50 - 59) (80) 221.00
421 225WIELFAERT NICO 05:40:38.10 M (40 - 49) (125) 176.00
422 166BARCLAY DANNY 05:40:46.96 M (50 - 59) (81) 220.00
423 149ADAMS DOMINIK 05:40:54.34 M (60 - 66) (16) 285.00
424 230ROHART BRUNO 05:41:07.52 M (50 - 59) (82) 219.00
425 98DE VECCHI AMELIE 05:41:36.87 F (35 - 49) (7) 294.00
426 906LIEVENS GEOFFREY 05:41:42.03 M (30 - 39) (118) 183.00
427 938CROS OLIVIER 05:42:25.19 M (40 - 49) (126) 175.00
428 641PRIGENT LOIC 05:42:40.45 M (40 - 49) (127) 174.00
429 801POCKET SAMMY 05:42:52.17 M (18 - 29) (69) 232.00
430 840PELLERAY FLORIAN 05:42:55.15 M (18 - 29) (70) 231.00
431 872OTTEN ROB 05:43:16.56 M (40 - 49) (128) 173.00
432 947POUSSON LIONEL 05:43:17.81 M (40 - 49) (129) 172.00
433 754VAN RUYSEVELT NICOLAS 05:43:26.10 M (30 - 39) (119) 182.00
434 833VERHAEGE CLAUDE 05:43:27.03 M (50 - 59) (83) 218.00
435 755VANASSCHE THIERRY 05:43:27.29 M (40 - 49) (130) 171.00
436 710RICOUARD DIDIER 05:43:28.80 M (50 - 59) (84) 217.00
437 475SARENS KURT 05:43:29.31 M (40 - 49) (131) 170.00
438 778DECOUX RENAUD 05:43:32.27 M (18 - 29) (71) 230.00
439 917CROES SVEN 05:43:34.04 M (40 - 49) (132) 169.00
440 405JOYE TOM 05:43:42.39 M (40 - 49) (133) 168.00
441 913DEMUNTER ERIK 05:43:42.44 M (30 - 39) (120) 181.00
442 804MINNE OLAF 05:43:44.72 M (50 - 59) (85) 216.00
443 333AGEZ DOMINIQUE 05:43:50.04 M (50 - 59) (86) 215.00
444 727BECHI OLIVIER 05:43:50.15 M (40 - 49) (134) 167.00
445 762BECKERS HUGO 05:43:55.13 M (30 - 39) (121) 180.00
446 834HERREMANS EVERT 05:43:55.79 M (30 - 39) (122) 179.00
447 939TRULLEMANS STEVE 05:44:01.74 M (40 - 49) (135) 166.00
448 881CAREMANS WARD 05:44:06.67 M (30 - 39) (123) 178.00
449 701SCHAELE DEISY 05:44:10.68 F (18 - 34) (5) 296.00
450 547VANDENDRIESSCHE STIJN 05:44:18.22 M (30 - 39) (124) 177.00
451 668TRIPNAUX LOIC 05:44:19.66 M (30 - 39) (125) 176.00
452 622JAUMOTTE CHRISTOPHE 05:44:24.27 M (30 - 39) (126) 175.00
453 621ANDRE ERIC 05:44:24.35 M (30 - 39) (127) 174.00
454 29VERCAIGNE ANDY 05:44:31.49 M (40 - 49) (136) 165.00
455 665DELINSELLE ERIC 05:44:31.54 M (40 - 49) (137) 164.00
456 239SIBILE MICHEL 05:44:31.61 M (60 - 66) (17) 284.00
457 72VANCOMPERNOLLE EDDY 05:44:34.73 M (50 - 59) (87) 214.00
458 824LAPON STIJN 05:44:36.61 M (18 - 29) (72) 229.00
459 71PENEZ BART 05:44:37.89 M (60 - 66) (18) 283.00
460 118BULCKAERT MARIO 05:44:39.07 M (50 - 59) (88) 213.00
461 544VANDEKERKHOVE MARGOT 05:44:46.12 F (18 - 34) (6) 295.00
462 43DECATELLE DANY 05:44:54.54 M (50 - 59) (89) 212.00
463 192DEMETS DIRK 05:45:07.56 M (60 - 66) (19) 282.00
464 258SCHOENMAKERS PATRICK 05:45:08.60 M (30 - 39) (128) 173.00
465 119VANRIJCKEGHEM MATHIEU 05:45:30.22 M (30 - 39) (129) 172.00
466 797TIELEMANS YVES 05:45:31.26 M (40 - 49) (138) 163.00
467 266CUDORGE REMY 05:45:55.55 M (60 - 66) (20) 281.00
468 194DELIE LIEN 05:46:18.70 F (35 - 49) (8) 293.00
469 202VANHOUTTE CHRIS 05:46:20.04 M (50 - 59) (90) 211.00
470 411LEROY DANIEL 05:46:31.30 M (40 - 49) (139) 162.00
471 928DUFOUR CLEMENT 05:46:59.86 M (18 - 29) (73) 228.00
472 68DUNEUFGERMAIN FLORENT 05:47:16.82 M (40 - 49) (140) 161.00
473 22BRUGGEMAN INE 05:48:06.46 F (18 - 34) (7) 294.00
474 170HEEREN BENNY 05:48:17.88 M (40 - 49) (141) 160.00
475 709ADRIAEN STIJN 05:48:24.69 M (18 - 29) (74) 227.00
476 508WARDILL EDWARD 05:49:46.25 M (50 - 59) (91) 210.00
477 503COBB ROBERT 05:49:57.54 M (50 - 59) (92) 209.00
478 940BILLY VINCENT 05:50:04.90 M (40 - 49) (142) 159.00
479 737VAN DEN STEEN PIETER 05:50:14.00 M (30 - 39) (130) 171.00
480 853SIX ROMAIN 05:50:52.45 M (30 - 39) (131) 170.00
481 220BISLIP RAOUL 05:51:18.24 M (40 - 49) (143) 158.00
482 911VERHAEGEN DRIES 05:51:31.02 M (30 - 39) (132) 169.00
483 235VANAELST PIETER 05:51:35.44 M (30 - 39) (133) 168.00
484 41DETAVERNIER CHRISTOPHE 05:51:51.83 M (50 - 59) (93) 208.00
485 745BLANQUET OLIVIER 05:52:16.02 M (40 - 49) (144) 157.00
486 941DE CLERCK BJORN 05:52:20.65 M (30 - 39) (134) 167.00
487 676DE RYCKE KOENRAAD 05:53:04.84 M (50 - 59) (94) 207.00
488 155CHEESEMAN GRAHAM 05:53:09.56 M (50 - 59) (95) 206.00
489 275FRANCOIS RONALD 05:53:45.61 M (40 - 49) (145) 156.00
490 280DUVAL SAMUEL 05:53:45.72 M (40 - 49) (146) 155.00
491 182ACCOU KRIST 05:54:12.20 M (40 - 49) (147) 154.00
492 337CORDOUAN DAVID 05:54:58.56 M (40 - 49) (148) 153.00
493 429GELDHOF BENNY 05:55:00.12 M (40 - 49) (149) 152.00
494 344VANDAMME KRIS 05:55:07.17 M (40 - 49) (150) 151.00
495 882VANDOOREN LUC 05:55:10.31 M (50 - 59) (96) 205.00
496 295DE GROOTE HANS 05:55:18.21 M (40 - 49) (151) 150.00
497 408VOLCKAERT MATTHIAS 05:55:30.66 M (30 - 39) (135) 166.00
498 323DELPLACE JEAN-MARIE 05:55:34.90 M (50 - 59) (97) 204.00
499 885DROUAULT PATRRICK 05:55:39.88 M (50 - 59) (98) 203.00
500 90COOLENS PETER 05:55:44.81 M (40 - 49) (152) 149.00
501 631DEPONDT JOCHEN 05:55:45.44 M (40 - 49) (153) 148.00
502 635VERSYCK PETER 05:55:52.51 M (30 - 39) (136) 165.00
503 538VINCENT PETER 05:56:02.33 M (30 - 39) (137) 164.00
504 430TACK LIEVEN 05:56:03.47 M (50 - 59) (99) 202.00
505 70COTTRET SYLVAIN 05:56:17.54 M (40 - 49) (154) 147.00
506 859LENOIR ERIC 05:56:21.24 M (50 - 59) (100) 201.00
507 851BEHRENS ROBERT 05:56:24.62 M (30 - 39) (138) 163.00
508 655BEAUPREZ BART 05:57:24.19 M (40 - 49) (155) 146.00
509 440VERBIEST HENDRIK 05:58:26.22 M (60 - 66) (21) 280.00
510 638HOYEZ SEBASTIEN 05:58:35.72 M (40 - 49) (156) 145.00
511 477WYNS MARNIK 05:58:39.83 M (40 - 49) (157) 144.00
512 52JIMENEZ NOEL 05:58:49.79 M (67 & +) (6) 295.00
513 874WINNE PIETER 05:59:22.95 M (30 - 39) (139) 162.00
514 873BASTIAEN TIMOTHY 06:00:31.47 M (40 - 49) (158) 143.00
515 437TRIEST JEROEN 06:00:35.10 M (18 - 29) (75) 226.00
516 438LAERENBERGH MICHIEL 06:00:35.41 M (40 - 49) (159) 142.00
517 402DEGREEF PATRICK 06:00:36.18 M (40 - 49) (160) 141.00
518 788DUBOIS GUILLAUME 06:00:36.28 M (40 - 49) (161) 140.00
519 698NEUCKERMANS BOUTER 06:01:11.08 M (30 - 39) (140) 161.00
520 761DHAENENS FRANK 06:01:12.60 M (30 - 39) (141) 160.00
521 702PLETINCKX BRENT 06:01:12.66 M (18 - 29) (76) 225.00
522 678HOLVOET LOUIS 06:01:14.45 M (18 - 29) (77) 224.00
523 728STRAETMANS ANTON 06:01:14.52 M (18 - 29) (78) 223.00
524 69DICKHOUT JAN 06:02:00.29 M (67 & +) (7) 294.00
525 920VANCOLEN PETER 06:02:15.92 M (40 - 49) (162) 139.00
526 586MOKRAN MIMOUN 06:02:16.24 M (40 - 49) (163) 138.00
527 916DEMEYERE WIM 06:02:20.78 M (40 - 49) (164) 137.00
528 410BERGIERS BRUNO 06:03:49.77 M (40 - 49) (165) 136.00
529 741STYNEN BERT 06:04:26.28 M (50 - 59) (101) 200.00
530 546VAN GESTEL WILLEM JAN 06:04:54.22 M (18 - 29) (79) 222.00
531 50MULLINS RENE 06:05:59.67 F (50 & +) (1) 300.00
532 432VAN DEN STEEN WARRE 06:06:18.32 M (18 - 29) (80) 221.00
533 914DEMUYNCK BRAM 06:06:18.69 M (40 - 49) (166) 135.00
534 889BOUCKAERT BART 06:06:21.04 M (40 - 49) (167) 134.00
535 792DE RIDDER PASCAL 06:06:40.79 M (50 - 59) (102) 199.00
536 825BUREL FRANCK 06:07:24.17 M (50 - 59) (103) 198.00
537 900BUREL THOMAS 06:07:35.75 M (30 - 39) (142) 159.00
538 827CORROY JACQUES 06:07:36.32 M (50 - 59) (104) 197.00
539 5CHAPMAN BEN 06:07:51.55 M (50 - 59) (105) 196.00
540 483ANTHEUNIS WIM 06:07:52.11 M (50 - 59) (106) 195.00
541 771KOL ADWIN 06:07:53.03 M (50 - 59) (107) 194.00
542 593NICHOLOSON SIMON 06:08:26.41 M (40 - 49) (168) 133.00
543 65AMALRIC CHRISTOPHE 06:08:46.19 M (40 - 49) (169) 132.00
544 436VAN BIESEN JO 06:08:50.34 M (40 - 49) (170) 131.00
545 183WILLIAMS DAVE 06:09:25.61 M (50 - 59) (108) 193.00
546 601BROUX SEBASTIEN 06:09:26.96 M (30 - 39) (143) 158.00
547 175GIBSON DAVE 06:09:29.01 M (50 - 59) (109) 192.00
548 823BESSON FREDERIIC 06:09:45.89 M (40 - 49) (171) 130.00
549 839VANDERHAEGHEN JORIS 06:09:53.85 M (40 - 49) (172) 129.00
550 680NAGEL RICHARD 06:10:02.25 M (50 - 59) (110) 191.00
551 605DE ZUTTER IVAN 06:10:44.99 M (50 - 59) (111) 190.00
552 690DEMEULEMEESTERE STEFAAN 06:12:20.84 M (50 - 59) (112) 189.00
553 915VAN PETEGHEM MIREILLE 06:12:20.94 F (50 & +) (2) 299.00
554 587VAN HECKE EVERT 06:13:10.27 M (50 - 59) (113) 188.00
555 791SEURINCK FREDDY 06:13:26.53 M (60 - 66) (22) 279.00
556 197BRIMBOIS MARC 06:13:55.84 M (18 - 29) (81) 220.00
557 311NANTOIS FRANCK 06:14:15.40 M (40 - 49) (173) 128.00
558 524BEYLS BRECHT 06:15:03.23 M (18 - 29) (82) 219.00
559 753VERVACKE YVES 06:15:03.92 M (30 - 39) (144) 157.00
560 923CHARTIER SEBASTIEN 06:15:14.66 M (30 - 39) (145) 156.00
561 569VANDELANOTTE SARA 06:15:27.38 F (18 - 34) (8) 293.00
562 608LAMBIN FREDERIC 06:16:37.75 M (30 - 39) (146) 155.00
563 247COLLINSON JEREMY 06:16:41.62 M (60 - 66) (23) 278.00
564 884RENARD GUY 06:16:48.26 M (50 - 59) (114) 187.00
565 865REVYN JURGEN 06:16:51.36 M (40 - 49) (174) 127.00
566 423GOMIS FOURTADO SAM 06:16:51.48 M (40 - 49) (175) 126.00
567 84DESMET RUDI 06:16:52.48 M (50 - 59) (115) 186.00
569 812DE CLERCQ PETER 06:17:22.33 M (30 - 39) (147) 154.00
570 624VERVOORT MATTIAS 06:17:22.34 M (30 - 39) (148) 153.00
571 296D HAESE KEVIN 06:18:01.90 M (30 - 39) (149) 152.00
572 691ROBINSON NICHOLAS 06:18:10.44 M (40 - 49) (176) 125.00
573 692WESTON ANTHONY 06:18:10.50 M (40 - 49) (177) 124.00
574 814DE BLANGER SOFIE 06:18:20.08 F (35 - 49) (9) 292.00
575 485ROSSAERT JURGEN 06:18:41.49 M (40 - 49) (178) 123.00
576 552GOETHALS WARD 06:18:45.48 M (18 - 29) (83) 218.00
577 819TERRANOVA ANTHONY 06:18:49.37 M (30 - 39) (150) 151.00
578 446HUYSMAN TOM 06:19:46.50 M (40 - 49) (179) 122.00
579 574VAN EYCKEN SVEN 06:20:19.41 M (40 - 49) (180) 121.00
580 770PAPILLON MATTHIEU 06:22:33.09 M (30 - 39) (151) 150.00
581 139MALAS DAVID 06:25:45.03 M (40 - 49) (181) 120.00
582 312NANTOIS LAETITIA 06:25:51.01 F (35 - 49) (10) 291.00
583 907VAN DORSSELAERE ALAIN 06:26:23.91 M (60 - 66) (24) 277.00
584 444CHIGNARD ETIENNE 06:27:04.04 M (50 - 59) (116) 185.00
585 774QUINTENS JOHAN 06:27:49.17 M (50 - 59) (117) 184.00
586 560VALKENBORGH KRISTOF 06:28:13.58 M (30 - 39) (152) 149.00
587 568DE WOLF PAULINE 06:28:28.60 F (18 - 34) (9) 292.00
588 79BOUTELEUX ALAIN 06:29:37.15 M (50 - 59) (118) 183.00
589 646EMERICH PIERRE 06:29:43.17 M (30 - 39) (153) 148.00
590 808THOREY VALENTIN 06:29:45.63 M (18 - 29) (84) 217.00
591 912VERHAEGEN BRECHT 06:30:48.30 M (30 - 39) (154) 147.00
592 738DERYCKE DJANGO 06:31:12.38 M (40 - 49) (182) 119.00
593 769FLYGARE ANDRE 06:31:33.56 M (40 - 49) (183) 118.00
594 795ROCHE WILLIAM 06:31:39.63 M (67 & +) (8) 293.00
595 768VALENTIN HERVE 06:32:30.21 M (40 - 49) (184) 117.00
596 224PORTER MARTIN 06:33:18.32 M (50 - 59) (119) 182.00
597 74DE MAN JORIS 06:34:15.50 M (30 - 39) (155) 146.00
598 431VAN DER BIEST SVEN 06:35:00.74 M (30 - 39) (156) 145.00
599 787SCHOTTE ANDRE 06:36:47.61 M (40 - 49) (185) 116.00
600 264PETRUS FREDDY 06:36:47.98 M (60 - 66) (25) 276.00
601 776THELLIER MICKAEL 06:36:52.50 M (30 - 39) (157) 144.00
602 924TROUSSEAU MARC 06:37:01.28 M (60 - 66) (26) 275.00
603 890GOMBERT JEAN-MICHEL 06:37:02.70 M (60 - 66) (27) 274.00
604 891GOMBERT CLEMENT 06:37:02.87 M (18 - 29) (85) 216.00
605 669LECLUYSE KLAAS 06:37:34.81 M (50 - 59) (120) 181.00
606 478VROMMAN HANNES 06:37:40.70 M (30 - 39) (158) 143.00
607 320LIEBAULT STEPHANE 06:38:04.67 M (50 - 59) (121) 180.00
608 878VAN VEEN JORIS 06:38:56.99 M (40 - 49) (186) 115.00
609 735RYCKOORT PIETER 06:38:57.28 M (40 - 49) (187) 114.00
610 580VANDERBEKEN KRISTOF 06:39:00.17 M (30 - 39) (159) 142.00
611 581NAESSENS KRISTOF 06:39:00.56 M (40 - 49) (188) 113.00
612 576VANDERBRUGGHEN ARNE 06:39:01.20 M (30 - 39) (160) 141.00
613 682HUYSENTRUYT MATHIJS 06:39:44.32 M (30 - 39) (161) 140.00
614 513HUYSENTRUYT HANS 06:39:44.51 M (40 - 49) (189) 112.00
615 8087MANCHE PHILIPPE 06:39:46.58 M (60 - 66) (28) 273.00
616 563SCHOEPEN MARC 06:41:03.24 M (50 - 59) (122) 179.00
617 407PETITGENAY DAVID 06:41:09.32 M (40 - 49) (190) 111.00
618 584DEPREZ YVES 06:41:11.03 M (30 - 39) (162) 139.00
619 649LIBBRECHT CEDRIC 06:41:12.77 M (18 - 29) (86) 215.00
620 650BRACKE ROBRECHT 06:41:12.99 M (18 - 29) (87) 214.00
621 218PETRIE BOB 06:41:39.28 M (50 - 59) (123) 178.00
622 634BAKKER RENE 06:42:54.52 M (18 - 29) (88) 213.00
623 633BAKKER CINDY 06:42:54.95 F (18 - 34) (10) 291.00
624 439DE BAERDEMAEKER VINCENT 06:43:59.91 M (67 & +) (9) 292.00
625 636AMIRAULT JEAN-PHILIPPE 06:44:14.67 M (60 - 66) (29) 272.00
626 515WARMOES JAN 06:44:45.09 M (30 - 39) (163) 138.00
627 661BONELLO DAVID 06:45:29.73 M (40 - 49) (191) 110.00
628 617BOTTIAU JEAN 06:45:57.11 M (60 - 66) (30) 271.00
629 595KUENTZ FRED 06:46:50.89 M (50 - 59) (124) 177.00
630 927DUCHEMIN JEREMY 06:47:13.52 M (40 - 49) (192) 109.00
631 67JOLY MARC 06:48:15.06 M (50 - 59) (125) 176.00
632 779GOURIOU FERNAND 06:49:26.40 M (30 - 39) (164) 137.00
633 536CONUS BENOIT 06:50:24.39 M (40 - 49) (193) 108.00
634 520TARATTE MICHAEL 06:50:25.33 M (30 - 39) (165) 136.00
635 718CAUCHY PAUL 06:52:03.79 M (30 - 39) (166) 135.00
636 600LUDOVIC JEAN 06:52:15.39 M (30 - 39) (167) 134.00
637 248GARREAU GILLES 06:53:06.54 M (50 - 59) (126) 175.00
638 689SIMS STEVE 06:53:19.80 M (50 - 59) (127) 174.00
639 759BLERIOT ALEXANDRE 06:54:20.91 M (18 - 29) (89) 212.00
640 811ANCKAERT DOMINIQUE 06:54:50.55 M (50 - 59) (128) 173.00
641 766DELSERT DIMITRI 06:55:00.33 M (30 - 39) (168) 133.00
642 723SAISON NICOLAS 06:55:00.94 M (40 - 49) (194) 107.00
643 699GAIGNEUR DIMITRI 06:55:02.14 M (40 - 49) (195) 106.00
644 614TOUSSAINT MAXIME 06:55:05.09 M (18 - 29) (90) 211.00
645 658VINCK LIEVE 06:55:44.13 F (50 & +) (3) 298.00
646 800DENAYER GLEN 06:56:35.92 M (30 - 39) (169) 132.00
647 931VERCAUTEREN FREDERIK 06:56:55.57 M (18 - 29) (91) 210.00
648 942VANDOORN ANDY 06:57:06.24 M (40 - 49) (196) 105.00
649 945VAN CAUWENBERGHE FILIP 06:57:08.49 M (50 - 59) (129) 172.00
650 424CLAUS Frank 06:57:18.12 M (50 - 59) (130) 171.00
651 611BABYLAS MICHEL 06:58:22.81 M (50 - 59) (131) 170.00
652 465DOBBELAERE WILLY 06:59:25.24 M (60 - 66) (31) 270.00
653 425Duhain Koen 06:59:26.45 M (40 - 49) (197) 104.00
654 427Depoortere Lionel 06:59:30.43 M (50 - 59) (132) 169.00
655 615VAN DOOREN PIET 06:59:42.01 M (60 - 66) (32) 269.00
656 426DE BAERDEMAEKER CHRIS 06:59:43.99 M (40 - 49) (198) 103.00
657 551WYFFELS BJORN 06:59:45.49 M (40 - 49) (199) 102.00
658 107GOETHALS KRISTOF 06:59:46.20 M (40 - 49) (200) 101.00
659 548NOPPE ANDY 06:59:48.58 M (40 - 49) (201) 100.00
660 62VEREECKE FREDDY 07:00:29.71 M (50 - 59) (133) 168.00
661 60JOURDOIS LUDOVIC 07:01:09.03 M (50 - 59) (134) 167.00
662 925COTELLE CLAUDE 07:01:41.81 M (50 - 59) (135) 166.00
663 519COPPEE THOMAS 07:01:44.44 M (30 - 39) (170) 131.00
664 606PONCELET JACQUES 07:01:45.66 M (50 - 59) (136) 165.00
665 512LOSSA SAMUEL 07:01:49.48 M (40 - 49) (202) 99.00
666 553LEPOUTRE BJORN 07:02:41.69 M (18 - 29) (92) 209.00
667 777WUYTS PATRICK 07:03:18.22 M (50 - 59) (137) 164.00
668 929PERON FREDERIC 07:03:35.58 M (30 - 39) (171) 130.00
669 893VAN DER STOCKT BART 07:03:50.39 M (30 - 39) (172) 129.00
670 435VAN MALDEREN BART 07:04:43.54 M (40 - 49) (203) 98.00
671 420BEECKMAN EDDY 07:04:45.38 M (50 - 59) (138) 163.00
672 883COLPAERT JOSSE 07:04:57.74 M (30 - 39) (173) 128.00
673 642SOLACROUP REMI 07:07:00.55 M (30 - 39) (174) 127.00
674 937VANNEVEL BRAM 07:07:50.71 M (30 - 39) (175) 126.00
675 880MARTIN NADINE 07:08:53.54 F (35 - 49) (11) 290.00
676 625PREVEL CHRISTIAN 07:08:53.90 M (50 - 59) (139) 162.00
677 573SCHERER NICOLAS 07:09:34.18 M (40 - 49) (204) 97.00
678 572GOUBERT ANDRE-PIERRE 07:09:36.05 M (60 - 66) (33) 268.00
679 54AIZIER JEAN-PIERRE 07:10:15.70 M (60 - 66) (34) 267.00
680 856BRUNELLE PATRICE 07:10:39.59 M (30 - 39) (176) 125.00
681 150DEMUYNCK RIK 07:10:56.62 M (50 - 59) (140) 161.00
682 695NOQUET THIERRY 07:14:09.99 M (40 - 49) (205) 96.00
683 740CAGIAO SAMBADE JOSE MANUEL 07:14:10.17 M (40 - 49) (206) 95.00
684 849MARTIGNON JEAN-YVES 07:14:11.89 M (50 - 59) (141) 160.00
685 807TRANZER OLIVIER 07:17:31.46 M (30 - 39) (177) 124.00
686 571CHARPIER AURELIEN 07:17:31.85 M (30 - 39) (178) 123.00
687 722FORZANO JEROME 07:17:55.18 M (30 - 39) (179) 122.00
688 933HARANG BRUNO 07:18:37.35 M (50 - 59) (142) 159.00
689 934CAUDRON CHRISTOPHE 07:18:37.84 M (40 - 49) (207) 94.00
690 504KELDER ED 07:19:57.06 M (40 - 49) (208) 93.00
691 829KORVING REMCO 07:19:58.16 M (50 - 59) (143) 158.00
692 501RICHARDSON ARTHUR 07:19:58.43 M (50 - 59) (144) 157.00
693 517VELZEL BASTIAAN 07:19:59.18 M (40 - 49) (209) 92.00
694 507MANS ROLAND 07:19:59.21 M (50 - 59) (145) 156.00
695 932FERREIRA RICARDO 07:23:49.97 M (30 - 39) (180) 121.00
696 629LAPERSE ALEXANDRE 07:24:15.44 M (40 - 49) (210) 91.00
697 535LOBACH TATYANA 07:28:10.34 F (35 - 49) (12) 289.00
698 712BLANDFORD FRASER 07:29:07.47 M (40 - 49) (211) 90.00
699 226COLLYER ANDREW 07:29:07.98 M (40 - 49) (212) 89.00
700 222WHARTON NIGEL 07:29:08.98 M (60 - 66) (35) 266.00
701 462VAN VLIET ARJAN 07:29:11.31 M (50 - 59) (146) 155.00
702 955VAN HOEK IVO 07:29:34.86 M (50 - 59) (147) 154.00
703 922GROENEVELD HUIB 07:29:49.41 M (50 - 59) (148) 153.00
704 4098JAYRAM KARL 07:30:24.54 M (40 - 49) (213) 88.00
705 582DE RIDDER SAM 07:31:08.79 M (40 - 49) (214) 87.00
706 583DE RIDDER TOM 07:31:10.77 M (50 - 59) (149) 152.00
707 216RICE CLIFF 07:34:51.63 M (50 - 59) (150) 151.00
708 832HEYENS JORIS 07:36:39.07 M (30 - 39) (181) 120.00
709 930VERCAUTEREN MARC 07:37:54.63 M (50 - 59) (151) 150.00
710 542VAN HAELST M.A. 07:38:10.21 M (40 - 49) (215) 86.00
711 543VAN HAELST PAUL 07:38:19.24 M (50 - 59) (152) 149.00
712 901VANDENBULCKE BERTRAND 07:38:25.58 M (60 - 66) (36) 265.00
713 902VANDENBULCKE PASCAL 07:38:26.71 M (60 - 66) (37) 264.00
714 596JAEGLY ANGELIQUE 07:42:22.33 F (35 - 49) (13) 288.00
715 835ERBETTA WILLIAM 07:44:52.90 M (50 - 59) (153) 148.00
716 828DI MEO MICHEL 07:44:53.25 M (50 - 59) (154) 147.00
717 598VAN GORP GERTJAN 07:45:01.25 M (30 - 39) (182) 119.00
718 545CANNAERTS RUBEN 07:46:31.54 M (30 - 39) (183) 118.00
719 61ROCHER DENIS 07:49:10.60 M (67 & +) (10) 291.00
720 713DAUVERGNE LAURENT 08:01:46.78 M (50 - 59) (155) 146.00
721 628FOX IAN 08:07:34.53 M (50 - 59) (156) 145.00
722 724BOT KEVIN 08:13:50.56 M (40 - 49) (216) 85.00
723 541DE GROOTE PHILIP 08:13:50.86 M (50 - 59) (157) 144.00
724 764VAN DE WALLE PIETER 08:13:52.53 M (40 - 49) (217) 84.00
725 511CALLIER SVEN 08:13:52.60 M (30 - 39) (184) 117.00
726 562GERYL JELKE 08:13:53.64 F (18 - 34) (11) 290.00
727 731DE BRUYCKERE THELMA 08:13:53.95 F (18 - 34) (12) 289.00
728 509HOEDAERT LENNERT 08:13:56.26 M (30 - 39) (185) 116.00
729 453JACOBS HANS 08:17:15.91 M (40 - 49) (218) 83.00
730 715MALESYS PIERRE 09:07:53.81 M (60 - 66) (38) 263.00
731 566FEY ASTRID 09:09:20.39 F (50 & +) (4) 297.00
732 565KROBER THOMAS 09:09:21.79 M (50 - 59) (158) 143.00
733 455BERT STEENBEKE 09:16:05.17 M (40 - 49) (219) 82.00
734 564KORTENDICK OLIVER 09:18:43.08 M (50 - 59) (159) 142.00


2019 - Picarde Baie de Somme GranFondo - RANDO
DOS.TEMPS